Time;durP1;ratioP1;P1;durP2;ratioP2;P2;SDS_P1;SDS_P2;PMS_P1;PMS_P2;Temp;Humidity;BMP_temperature;BMP_pressure;BME280_temperature;BME280_humidity;BME280_pressure;Samples;Min_cycle;Max_cycle;Signal;HPM_P1;HPM_P2
2022/08/12 00:43:13;;;;;;;3.40;1.80;;;;;;;;;;5044721;28;20412;-73
2022/08/12 00:46:29;;;;;;;2.63;1.75;;;;;;;;;;5051919;28;20033;-73
2022/08/12 00:48:24;;;;;;;2.63;1.50;;;;;;;;;;5045299;28;20546;-73
2022/08/12 00:50:51;;;;;;;3.25;2.00;;;;;;;;;;5042783;28;20033;-73
2022/08/12 00:53:17;;;;;;;4.55;2.00;;;;;;;;;;5037234;28;20072;-73
2022/08/12 00:55:43;;;;;;;2.63;1.75;;;;;;;;;;5042560;28;20445;-73
2022/08/12 00:58:09;;;;;;;3.42;1.80;;;;;;;;;;5043171;28;20029;-73
2022/08/12 01:00:35;;;;;;;3.42;1.80;;;;;;;;;;5047712;28;20036;-74
2022/08/12 01:03:01;;;;;;;3.35;1.73;;;;;;;;;;5037810;28;20034;-73
2022/08/12 01:13:43;;;;;;;4.47;1.80;;;;;;;;;;5045444;28;20060;-73
2022/08/12 01:16:08;;;;;;;3.88;1.77;;;;;;;;;;5036400;28;20026;-73
2022/08/12 01:18:35;;;;;;;2.90;1.80;;;;;;;;;;5041893;28;20026;-73
2022/08/12 01:21:02;;;;;;;5.07;2.70;;;;;;;;;;5042530;28;20484;-74
2022/08/12 01:23:35;;;;;;;2.85;1.67;;;;;;;;;;5044084;28;20416;-73
2022/08/12 01:26:05;;;;;;;2.80;1.80;;;;;;;;;;5032478;28;20064;-73
2022/08/12 01:28:32;;;;;;;4.40;1.95;;;;;;;;;;5050918;28;20033;-72
2022/08/12 01:31:00;;;;;;;4.38;1.92;;;;;;;;;;5038038;28;20096;-72
2022/08/12 01:33:28;;;;;;;7.93;2.15;;;;;;;;;;5044239;28;20025;-73
2022/08/12 01:35:57;;;;;;;2.55;1.77;;;;;;;;;;5040473;28;20029;-73
2022/08/12 01:38:24;;;;;;;5.40;1.98;;;;;;;;;;5047969;28;20472;-73
2022/08/12 01:40:50;;;;;;;3.42;1.83;;;;;;;;;;5047838;28;20032;-72
2022/08/12 01:43:20;;;;;;;4.55;2.10;;;;;;;;;;5042545;28;20076;-72
2022/08/12 01:45:58;;;;;;;4.85;2.40;;;;;;;;;;5035487;28;20380;-73
2022/08/12 01:48:33;;;;;;;3.13;1.90;;;;;;;;;;5045203;28;20034;-72
2022/08/12 01:51:02;;;;;;;8.32;2.30;;;;;;;;;;5051711;28;20059;-72
2022/08/12 01:53:39;;;;;;;5.63;2.33;;;;;;;;;;5039440;28;20037;-72
2022/08/12 01:56:04;;;;;;;5.63;2.30;;;;;;;;;;5043233;28;20029;-74
2022/08/12 02:01:17;;;;;;;3.95;2.08;;;;;;;;;;5043607;28;20400;-73
2022/08/12 02:12:41;;;;;;;3.75;2.22;;;;;;;;;;5039511;28;20060;-73
2022/08/12 02:15:32;;;;;;;4.43;2.47;;;;;;;;;;5041390;28;20058;-73
2022/08/12 02:18:00;;;;;;;3.38;2.20;;;;;;;;;;5040710;28;20392;-74
2022/08/12 02:20:31;;;;;;;3.95;2.30;;;;;;;;;;5044066;28;20017;-73
2022/08/12 02:22:59;;;;;;;6.25;3.03;;;;;;;;;;5039388;28;20049;-73
2022/08/12 02:25:28;;;;;;;6.32;2.60;;;;;;;;;;5045721;28;20024;-74
2022/08/12 02:27:54;;;;;;;6.30;2.28;;;;;;;;;;5037276;28;20030;-73
2022/08/12 02:30:20;;;;;;;4.60;2.78;;;;;;;;;;5045673;28;20104;-73
2022/08/12 02:32:47;;;;;;;5.57;2.60;;;;;;;;;;5047729;28;20021;-74
2022/08/12 02:35:18;;;;;;;9.15;2.97;;;;;;;;;;5050268;28;20029;-73
2022/08/12 02:37:44;;;;;;;3.95;2.60;;;;;;;;;;5048535;28;20056;-73
2022/08/12 02:40:11;;;;;;;4.32;2.80;;;;;;;;;;5045753;28;20012;-73
2022/08/12 02:42:37;;;;;;;3.90;2.67;;;;;;;;;;5047541;28;20128;-73
2022/08/12 02:45:07;;;;;;;3.63;2.58;;;;;;;;;;5041276;28;20025;-74
2022/08/12 02:47:33;;;;;;;6.20;2.88;;;;;;;;;;5039361;28;20059;-73
2022/08/12 02:50:00;;;;;;;4.65;3.17;;;;;;;;;;5041000;28;20022;-72
2022/08/12 02:52:26;;;;;;;9.70;3.00;;;;;;;;;;5039899;28;20025;-72
2022/08/12 02:54:54;;;;;;;7.35;3.17;;;;;;;;;;5048802;28;20071;-73
2022/08/12 02:57:21;;;;;;;4.13;2.55;;;;;;;;;;5043280;28;20029;-72
2022/08/12 02:59:47;;;;;;;4.20;2.85;;;;;;;;;;5040980;28;20025;-72
2022/08/12 03:02:15;;;;;;;6.15;3.03;;;;;;;;;;5034330;28;20018;-72
2022/08/12 03:04:45;;;;;;;5.70;3.28;;;;;;;;;;5047077;28;20490;-72
2022/08/12 03:07:27;;;;;;;5.47;3.13;;;;;;;;;;5044884;28;20061;-72
2022/08/12 03:10:01;;;;;;;3.83;2.75;;;;;;;;;;5045904;28;20033;-72
2022/08/12 03:12:28;;;;;;;5.18;3.38;;;;;;;;;;5042750;28;20032;-72
2022/08/12 03:14:56;;;;;;;5.60;3.30;;;;;;;;;;5038001;28;20036;-73
2022/08/12 03:17:26;;;;;;;6.10;3.42;;;;;;;;;;5041307;28;20505;-73
2022/08/12 03:19:55;;;;;;;9.60;3.05;;;;;;;;;;5043277;28;20029;-74
2022/08/12 03:22:22;;;;;;;7.95;3.60;;;;;;;;;;5035487;28;20080;-72
2022/08/12 03:24:48;;;;;;;5.03;3.47;;;;;;;;;;5047025;28;20439;-73
2022/08/12 03:27:14;;;;;;;5.75;3.72;;;;;;;;;;5037181;28;20477;-73
2022/08/12 03:29:41;;;;;;;6.90;4.03;;;;;;;;;;5048092;28;20068;-73
2022/08/12 03:32:06;;;;;;;5.53;3.45;;;;;;;;;;5044977;28;20469;-73
2022/08/12 03:34:34;;;;;;;6.40;4.15;;;;;;;;;;5050811;28;20070;-73
2022/08/12 03:37:01;;;;;;;4.63;3.55;;;;;;;;;;5038619;28;20104;-72
2022/08/12 03:42:20;;;;;;;4.55;3.38;;;;;;;;;;5039600;28;20037;-72
2022/08/12 04:01:27;;;;;;;7.28;4.53;;;;;;;;;;5037794;28;20136;-72
2022/08/12 04:03:53;;;;;;;5.57;3.72;;;;;;;;;;5039902;28;20096;-73
2022/08/12 04:06:23;;;;;;;8.25;4.85;;;;;;;;;;5041418;28;20043;-73
2022/08/12 04:08:49;;;;;;;8.25;5.10;;;;;;;;;;5035919;28;20029;-73
2022/08/12 04:14:09;;;;;;;8.25;4.85;;;;;;;;;;5049319;28;20107;-72
2022/08/12 04:16:35;;;;;;;9.10;4.95;;;;;;;;;;5049325;28;20052;-72
2022/08/12 04:19:01;;;;;;;8.48;5.25;;;;;;;;;;5046375;28;20463;-72
2022/08/12 04:21:26;;;;;;;10.00;5.38;;;;;;;;;;5040651;28;20045;-73
2022/08/12 04:23:53;;;;;;;10.57;5.65;;;;;;;;;;5049157;28;20095;-73
2022/08/12 04:26:18;;;;;;;11.13;5.43;;;;;;;;;;5040697;28;20026;-72
2022/08/12 04:28:44;;;;;;;15.05;5.72;;;;;;;;;;5050034;28;20063;-73
2022/08/12 04:31:11;;;;;;;11.75;5.57;;;;;;;;;;5040139;28;20532;-73
2022/08/12 04:33:38;;;;;;;10.88;5.88;;;;;;;;;;5040785;28;20439;-72
2022/08/12 04:36:04;;;;;;;11.05;6.05;;;;;;;;;;5038737;28;20048;-72
2022/08/12 04:38:29;;;;;;;7.97;5.75;;;;;;;;;;5054178;28;20032;-72
2022/08/12 04:40:54;;;;;;;8.77;5.82;;;;;;;;;;5048043;28;20037;-72
2022/08/12 04:43:20;;;;;;;11.82;6.25;;;;;;;;;;5041046;28;20037;-72
2022/08/12 04:45:48;;;;;;;10.73;6.43;;;;;;;;;;5044649;28;20061;-72
2022/08/12 04:48:14;;;;;;;10.85;6.68;;;;;;;;;;5043973;28;20037;-72
2022/08/12 04:50:39;;;;;;;11.75;6.53;;;;;;;;;;5043239;28;20033;-72
2022/08/12 04:53:06;;;;;;;10.88;6.53;;;;;;;;;;5043643;28;20094;-72
2022/08/12 04:55:32;;;;;;;13.10;6.38;;;;;;;;;;5042020;28;20552;-72
2022/08/12 04:57:57;;;;;;;12.30;6.65;;;;;;;;;;5040029;28;20017;-72
2022/08/12 05:00:22;;;;;;;10.65;6.97;;;;;;;;;;5045168;28;20043;-72
2022/08/12 05:02:48;;;;;;;11.73;6.68;;;;;;;;;;5047186;28;20041;-72
2022/08/12 05:05:21;;;;;;;16.35;6.60;;;;;;;;;;5048985;28;20032;-74
2022/08/12 05:07:47;;;;;;;15.20;7.05;;;;;;;;;;5035968;28;20060;-72
2022/08/12 05:10:12;;;;;;;9.55;6.43;;;;;;;;;;5049300;28;20084;-72
2022/08/12 05:12:43;;;;;;;10.95;6.57;;;;;;;;;;5051169;28;20460;-72
2022/08/12 05:15:09;;;;;;;15.38;6.72;;;;;;;;;;5028223;28;20083;-72
2022/08/12 05:17:34;;;;;;;13.23;6.75;;;;;;;;;;5035740;28;20460;-73
2022/08/12 05:19:59;;;;;;;11.57;6.93;;;;;;;;;;5044492;28;20419;-73
2022/08/12 05:22:25;;;;;;;10.43;6.45;;;;;;;;;;5045241;28;20045;-72
2022/08/12 05:24:51;;;;;;;13.25;6.80;;;;;;;;;;5050840;28;20446;-73
2022/08/12 05:27:16;;;;;;;10.48;6.25;;;;;;;;;;5044946;28;20031;-72
2022/08/12 05:29:45;;;;;;;12.55;7.03;;;;;;;;;;5041752;28;20071;-72
2022/08/12 05:32:10;;;;;;;9.85;6.30;;;;;;;;;;5037276;28;20476;-72
2022/08/12 05:34:35;;;;;;;12.45;6.40;;;;;;;;;;5039065;28;20105;-72
2022/08/12 05:37:01;;;;;;;10.02;6.03;;;;;;;;;;5040785;28;20048;-72
2022/08/12 05:39:26;;;;;;;9.30;6.20;;;;;;;;;;5038105;28;20038;-72
2022/08/12 05:41:52;;;;;;;11.57;6.05;;;;;;;;;;5049958;28;20032;-73
2022/08/12 05:44:18;;;;;;;10.68;6.28;;;;;;;;;;5027192;28;20025;-72
2022/08/12 05:46:44;;;;;;;9.50;5.47;;;;;;;;;;5047028;28;20134;-72
2022/08/12 05:49:09;;;;;;;10.30;4.57;;;;;;;;;;5032718;28;20452;-73
2022/08/12 05:51:35;;;;;;;6.93;3.95;;;;;;;;;;5042272;28;20021;-73
2022/08/12 05:54:00;;;;;;;6.93;2.97;;;;;;;;;;5038539;28;20079;-73
2022/08/12 05:56:27;;;;;;;5.25;2.67;;;;;;;;;;5047347;28;20017;-73
2022/08/12 05:58:53;;;;;;;5.72;2.75;;;;;;;;;;5035617;28;20028;-74
2022/08/12 06:01:19;;;;;;;4.43;2.40;;;;;;;;;;5043313;28;20104;-74
2022/08/12 06:03:45;;;;;;;3.92;2.35;;;;;;;;;;5037023;28;20033;-73
2022/08/12 06:06:12;;;;;;;3.72;2.42;;;;;;;;;;5040830;28;20029;-74
2022/08/12 06:08:38;;;;;;;4.65;2.35;;;;;;;;;;5042065;28;20028;-73
2022/08/12 06:11:04;;;;;;;3.85;2.35;;;;;;;;;;5044050;28;20021;-73
2022/08/12 06:13:30;;;;;;;4.20;2.10;;;;;;;;;;5037731;28;20022;-73
2022/08/12 06:15:55;;;;;;;3.50;2.35;;;;;;;;;;5049120;28;20469;-74
2022/08/12 06:18:21;;;;;;;4.53;2.30;;;;;;;;;;5052108;28;20349;-73
2022/08/12 06:20:51;;;;;;;3.65;2.13;;;;;;;;;;5040342;28;20059;-74
2022/08/12 06:23:16;;;;;;;3.67;2.05;;;;;;;;;;5036900;28;20473;-75
2022/08/12 06:25:42;;;;;;;4.85;2.28;;;;;;;;;;5045198;28;20040;-74
2022/08/12 06:28:18;;;;;;;3.22;2.08;;;;;;;;;;5040405;28;20072;-74
2022/08/12 06:30:44;;;;;;;3.58;2.30;;;;;;;;;;5044516;28;20044;-74
2022/08/12 06:33:09;;;;;;;2.90;2.00;;;;;;;;;;5041711;28;20032;-74
2022/08/12 06:35:35;;;;;;;5.00;2.47;;;;;;;;;;5042067;28;20033;-73
2022/08/12 06:38:02;;;;;;;6.20;2.20;;;;;;;;;;5036764;28;20039;-74
2022/08/12 06:43:12;;;;;;;3.70;2.10;;;;;;;;;;5040353;28;20045;-74
2022/08/12 06:45:43;;;;;;;3.83;1.95;;;;;;;;;;5037360;28;20025;-73
2022/08/12 06:48:10;;;;;;;4.13;2.00;;;;;;;;;;5033533;28;20026;-74
2022/08/12 06:50:35;;;;;;;4.97;2.45;;;;;;;;;;5039693;28;20447;-74
2022/08/12 06:53:03;;;;;;;4.80;2.17;;;;;;;;;;5047655;28;20037;-74
2022/08/12 06:55:29;;;;;;;3.67;2.20;;;;;;;;;;5045315;28;20028;-74
2022/08/12 06:57:55;;;;;;;3.17;1.90;;;;;;;;;;5044985;28;20075;-74
2022/08/12 07:00:21;;;;;;;3.83;2.40;;;;;;;;;;5042964;28;20047;-74
2022/08/12 07:02:47;;;;;;;3.42;2.20;;;;;;;;;;5034912;28;20073;-74
2022/08/12 07:05:12;;;;;;;5.22;2.30;;;;;;;;;;5046316;28;20468;-75
2022/08/12 07:07:38;;;;;;;5.50;2.00;;;;;;;;;;5043142;28;20025;-73
2022/08/12 07:10:03;;;;;;;4.35;2.22;;;;;;;;;;5048175;28;20033;-74
2022/08/12 07:12:29;;;;;;;7.32;2.42;;;;;;;;;;5047752;28;20365;-74
2022/08/12 07:14:55;;;;;;;3.28;2.00;;;;;;;;;;5038647;28;20033;-75
2022/08/12 07:17:20;;;;;;;4.97;2.40;;;;;;;;;;5037804;28;20489;-74
2022/08/12 07:19:47;;;;;;;3.10;2.20;;;;;;;;;;5038005;28;20136;-74
2022/08/12 07:22:12;;;;;;;4.00;2.05;;;;;;;;;;5038812;28;20179;-75
2022/08/12 07:24:37;;;;;;;5.10;2.30;;;;;;;;;;5038052;28;20120;-74
2022/08/12 07:27:02;;;;;;;4.05;2.00;;;;;;;;;;5036305;28;20021;-75
2022/08/12 07:29:28;;;;;;;6.90;2.30;;;;;;;;;;5040888;28;20036;-73
2022/08/12 07:31:56;;;;;;;3.50;2.00;;;;;;;;;;5044433;28;20022;-74
2022/08/12 07:34:22;;;;;;;5.97;2.10;;;;;;;;;;5047503;28;20200;-73
2022/08/12 07:36:47;;;;;;;4.03;2.00;;;;;;;;;;5034089;28;20119;-75
2022/08/12 07:39:13;;;;;;;4.30;2.15;;;;;;;;;;5036048;28;20029;-74
2022/08/12 07:41:38;;;;;;;6.15;1.95;;;;;;;;;;5034189;28;20091;-74
2022/08/12 07:44:05;;;;;;;4.32;1.85;;;;;;;;;;5035890;28;20060;-76
2022/08/12 07:46:36;;;;;;;9.15;2.22;;;;;;;;;;5042017;28;20476;-74
2022/08/12 07:49:04;;;;;;;5.07;2.23;;;;;;;;;;5049908;28;20082;-75
2022/08/12 07:51:30;;;;;;;5.82;2.08;;;;;;;;;;5045093;28;20358;-75
2022/08/12 07:53:57;;;;;;;7.75;2.17;;;;;;;;;;5053596;28;20136;-75
2022/08/12 07:56:22;;;;;;;3.97;2.13;;;;;;;;;;5032876;28;20052;-75
2022/08/12 07:58:48;;;;;;;4.22;2.05;;;;;;;;;;5047939;28;20033;-75
2022/08/12 08:01:16;;;;;;;7.95;2.25;;;;;;;;;;5048367;28;20025;-74
2022/08/12 08:04:54;;;;;;;7.65;2.10;;;;;;;;;;5046317;28;20381;-76
2022/08/12 08:06:30;;;;;;;7.45;2.53;;;;;;;;;;5047447;28;20037;-75
2022/08/12 08:08:55;;;;;;;5.93;2.08;;;;;;;;;;5045202;28;20052;-75
2022/08/12 08:14:06;;;;;;;7.93;2.13;;;;;;;;;;5044125;28;20095;-75
2022/08/12 08:16:32;;;;;;;6.85;2.20;;;;;;;;;;5037534;28;20060;-75
2022/08/12 08:18:58;;;;;;;4.78;1.85;;;;;;;;;;5050464;28;20026;-74
2022/08/12 08:21:26;;;;;;;3.40;1.85;;;;;;;;;;5052212;28;20392;-74
2022/08/12 08:26:35;;;;;;;8.80;2.50;;;;;;;;;;5030430;28;20109;-74
2022/08/12 08:29:00;;;;;;;5.68;2.25;;;;;;;;;;5040218;28;20312;-74
2022/08/12 08:31:25;;;;;;;6.47;2.00;;;;;;;;;;5036325;28;20070;-74
2022/08/12 08:33:52;;;;;;;5.77;2.00;;;;;;;;;;5048358;28;20286;-75
2022/08/12 08:36:19;;;;;;;5.30;1.95;;;;;;;;;;5040373;28;20278;-75
2022/08/12 08:38:45;;;;;;;6.72;2.08;;;;;;;;;;5047564;28;20020;-75
2022/08/12 08:43:58;;;;;;;3.70;2.00;;;;;;;;;;5029553;28;20614;-76
2022/08/12 08:46:24;;;;;;;6.05;2.15;;;;;;;;;;5037563;28;20042;-75
2022/08/12 08:48:49;;;;;;;5.80;2.00;;;;;;;;;;5043941;28;20101;-77
2022/08/12 08:51:15;;;;;;;5.97;2.10;;;;;;;;;;5046438;28;20020;-75
2022/08/12 08:53:42;;;;;;;4.28;2.22;;;;;;;;;;5045294;28;20031;-75
2022/08/12 08:56:09;;;;;;;4.10;2.00;;;;;;;;;;5051536;28;20036;-75
2022/08/12 08:58:36;;;;;;;4.57;2.00;;;;;;;;;;5051251;28;20063;-75
2022/08/12 09:01:03;;;;;;;5.20;1.95;;;;;;;;;;5052510;28;20021;-75
2022/08/12 09:03:29;;;;;;;5.60;2.05;;;;;;;;;;5044927;28;20040;-75
2022/08/12 09:05:54;;;;;;;5.70;1.95;;;;;;;;;;5048997;28;20540;-76
2022/08/12 09:08:21;;;;;;;4.90;1.77;;;;;;;;;;5040941;28;20097;-76
2022/08/12 09:10:47;;;;;;;10.60;2.15;;;;;;;;;;5042113;28;20274;-75
2022/08/12 09:13:27;;;;;;;10.35;2.13;;;;;;;;;;5042423;28;20042;-75
2022/08/12 09:15:53;;;;;;;3.33;1.98;;;;;;;;;;5030251;28;20021;-75
2022/08/12 09:18:19;;;;;;;12.52;2.10;;;;;;;;;;5049067;28;20148;-76
2022/08/12 09:20:47;;;;;;;5.20;2.40;;;;;;;;;;5046747;28;20021;-75
2022/08/12 09:23:12;;;;;;;6.38;2.03;;;;;;;;;;5044223;28;20124;-75
2022/08/12 09:25:39;;;;;;;6.13;2.10;;;;;;;;;;5037768;28;20108;-75
2022/08/12 09:28:04;;;;;;;6.25;2.10;;;;;;;;;;5048262;28;20101;-75
2022/08/12 09:30:30;;;;;;;5.72;2.05;;;;;;;;;;5038869;28;20412;-75
2022/08/12 09:32:55;;;;;;;6.43;2.20;;;;;;;;;;5037475;28;20072;-75
2022/08/12 09:35:22;;;;;;;3.53;1.88;;;;;;;;;;5037772;28;20019;-75
2022/08/12 09:37:49;;;;;;;5.80;2.00;;;;;;;;;;5036341;28;20420;-75
2022/08/12 09:40:15;;;;;;;11.60;2.17;;;;;;;;;;5037723;28;20030;-75
2022/08/12 09:45:25;;;;;;;5.25;2.10;;;;;;;;;;5044465;28;20028;-75
2022/08/12 09:47:51;;;;;;;6.32;2.10;;;;;;;;;;5043914;28;20033;-76
2022/08/12 09:50:17;;;;;;;5.40;2.33;;;;;;;;;;5049925;28;20017;-75
2022/08/12 09:52:44;;;;;;;7.50;2.17;;;;;;;;;;5051852;28;20094;-75
2022/08/12 09:55:10;;;;;;;5.00;2.17;;;;;;;;;;5049413;28;20028;-75
2022/08/12 09:57:35;;;;;;;3.95;1.85;;;;;;;;;;5044723;28;20033;-74
2022/08/12 10:00:01;;;;;;;9.07;2.20;;;;;;;;;;5043141;28;20024;-75
2022/08/12 10:02:26;;;;;;;5.07;2.20;;;;;;;;;;5039436;28;20381;-75
2022/08/12 10:04:55;;;;;;;6.95;2.05;;;;;;;;;;5038540;28;20022;-75
2022/08/12 10:07:21;;;;;;;6.95;2.15;;;;;;;;;;5040615;28;20075;-74
2022/08/12 10:09:47;;;;;;;4.80;2.15;;;;;;;;;;5043024;28;20543;-75
2022/08/12 10:14:56;;;;;;;6.90;2.20;;;;;;;;;;5037414;28;20036;-75
2022/08/12 10:17:22;;;;;;;8.18;2.20;;;;;;;;;;5047017;28;20473;-74
2022/08/12 10:19:48;;;;;;;4.95;2.10;;;;;;;;;;5052904;28;20048;-74
2022/08/12 10:22:14;;;;;;;6.80;2.10;;;;;;;;;;5040185;28;20057;-74
2022/08/12 10:24:39;;;;;;;5.53;2.20;;;;;;;;;;5044931;28;20044;-74
2022/08/12 10:29:49;;;;;;;4.55;2.28;;;;;;;;;;5034388;28;20028;-74
2022/08/12 10:32:22;;;;;;;7.07;2.00;;;;;;;;;;5037844;28;20120;-74
2022/08/12 10:34:48;;;;;;;9.63;2.25;;;;;;;;;;5047274;28;20025;-74
2022/08/12 10:37:13;;;;;;;6.70;1.92;;;;;;;;;;5036077;28;20020;-74
2022/08/12 10:39:39;;;;;;;6.20;2.00;;;;;;;;;;5039898;28;20037;-74
2022/08/12 10:44:59;;;;;;;5.30;2.00;;;;;;;;;;5035083;28;20035;-74
2022/08/12 10:47:25;;;;;;;9.30;2.28;;;;;;;;;;5042018;28;20033;-74
2022/08/12 10:49:51;;;;;;;10.05;2.20;;;;;;;;;;5047114;28;20562;-74
2022/08/12 10:52:16;;;;;;;4.75;1.58;;;;;;;;;;5050268;28;20029;-73
2022/08/12 10:54:42;;;;;;;5.47;2.15;;;;;;;;;;5050040;28;20025;-74
2022/08/12 10:57:08;;;;;;;3.53;1.58;;;;;;;;;;5044543;28;20013;-73
2022/08/12 10:59:33;;;;;;;6.80;2.00;;;;;;;;;;5045692;28;20067;-73
2022/08/12 11:01:59;;;;;;;6.95;1.95;;;;;;;;;;5047321;28;20041;-73
2022/08/12 11:04:24;;;;;;;6.18;2.10;;;;;;;;;;5046928;28;20017;-73
2022/08/12 11:06:52;;;;;;;3.63;1.83;;;;;;;;;;5035514;28;20095;-74
2022/08/12 11:09:18;;;;;;;8.20;2.50;;;;;;;;;;5044884;28;20037;-74
2022/08/12 11:11:47;;;;;;;7.75;1.77;;;;;;;;;;5043660;28;20018;-73
2022/08/12 11:14:16;;;;;;;5.82;1.90;;;;;;;;;;5047256;28;20021;-73
2022/08/12 11:16:45;;;;;;;9.77;2.50;;;;;;;;;;5042909;28;20048;-73
2022/08/12 11:19:13;;;;;;;5.45;2.00;;;;;;;;;;5044924;28;20464;-73
2022/08/12 11:21:38;;;;;;;4.75;1.90;;;;;;;;;;5046003;28;20087;-73
2022/08/12 11:24:04;;;;;;;5.03;2.20;;;;;;;;;;5050768;28;20495;-73
2022/08/12 11:26:29;;;;;;;4.55;2.30;;;;;;;;;;5047864;28;20403;-73
2022/08/12 11:28:55;;;;;;;5.97;2.00;;;;;;;;;;5042455;28;20075;-73
2022/08/12 11:31:20;;;;;;;8.85;2.50;;;;;;;;;;5048615;28;20464;-74
2022/08/12 11:33:48;;;;;;;5.93;2.10;;;;;;;;;;5044890;28;20037;-73
2022/08/12 11:36:13;;;;;;;7.25;2.30;;;;;;;;;;5046271;28;20025;-73
2022/08/12 11:38:39;;;;;;;8.27;2.38;;;;;;;;;;5051255;28;20422;-73
2022/08/12 11:41:04;;;;;;;5.38;2.58;;;;;;;;;;5046312;28;20022;-73
2022/08/12 11:43:30;;;;;;;9.75;2.85;;;;;;;;;;5039995;28;20416;-73
2022/08/12 11:45:55;;;;;;;5.78;2.42;;;;;;;;;;5048767;28;20029;-73
2022/08/12 11:48:21;;;;;;;5.30;2.10;;;;;;;;;;5046848;28;20475;-73
2022/08/12 11:50:46;;;;;;;9.48;2.88;;;;;;;;;;5047993;28;20056;-73
2022/08/12 11:53:11;;;;;;;5.82;2.17;;;;;;;;;;5046324;28;20052;-73
2022/08/12 11:55:37;;;;;;;6.38;2.17;;;;;;;;;;5052151;28;20065;-73
2022/08/12 11:58:02;;;;;;;8.00;2.30;;;;;;;;;;5039624;28;20017;-74
2022/08/12 12:00:28;;;;;;;5.15;1.85;;;;;;;;;;5051059;28;20040;-73
2022/08/12 12:02:53;;;;;;;4.28;2.58;;;;;;;;;;5047217;28;20017;-73
2022/08/12 12:05:19;;;;;;;6.50;2.40;;;;;;;;;;5045626;28;20017;-73
2022/08/12 12:07:44;;;;;;;4.93;2.17;;;;;;;;;;5042506;28;20048;-73
2022/08/12 12:10:14;;;;;;;5.57;2.58;;;;;;;;;;5044374;28;20080;-73
2022/08/12 12:12:41;;;;;;;5.13;2.40;;;;;;;;;;5047111;28;20099;-73
2022/08/12 12:15:07;;;;;;;7.75;2.47;;;;;;;;;;5052157;28;20037;-74
2022/08/12 12:17:36;;;;;;;5.65;2.28;;;;;;;;;;5039276;28;20099;-74
2022/08/12 12:20:04;;;;;;;4.70;2.10;;;;;;;;;;5049553;28;20040;-73
2022/08/12 12:22:29;;;;;;;8.65;2.33;;;;;;;;;;5046441;28;20045;-73
2022/08/12 12:24:54;;;;;;;8.98;2.60;;;;;;;;;;5049985;28;20035;-73
2022/08/12 12:27:20;;;;;;;6.50;2.35;;;;;;;;;;5047876;28;20487;-73
2022/08/12 12:29:45;;;;;;;9.13;2.10;;;;;;;;;;5043777;28;20464;-73
2022/08/12 12:32:11;;;;;;;8.75;2.08;;;;;;;;;;5051657;28;20101;-73
2022/08/12 12:34:36;;;;;;;12.38;2.45;;;;;;;;;;5053407;28;20104;-73
2022/08/12 12:37:01;;;;;;;5.68;2.33;;;;;;;;;;5051039;28;20029;-75
2022/08/12 12:39:27;;;;;;;6.75;2.42;;;;;;;;;;5047219;28;20033;-74
2022/08/12 12:41:52;;;;;;;7.15;2.22;;;;;;;;;;5040638;28;20024;-74
2022/08/12 12:44:17;;;;;;;6.43;2.13;;;;;;;;;;5037220;28;20036;-73
2022/08/12 12:46:42;;;;;;;16.35;2.50;;;;;;;;;;5048997;28;20036;-74
2022/08/12 12:49:08;;;;;;;7.75;2.00;;;;;;;;;;5038393;28;20048;-73
2022/08/12 12:51:33;;;;;;;9.85;2.67;;;;;;;;;;5040494;28;20029;-73
2022/08/12 12:53:58;;;;;;;6.88;2.40;;;;;;;;;;5037122;28;20065;-73
2022/08/12 12:56:24;;;;;;;5.57;2.30;;;;;;;;;;5041962;28;20131;-74
2022/08/12 12:58:50;;;;;;;2.92;1.85;;;;;;;;;;5041237;28;20033;-74
2022/08/12 13:01:17;;;;;;;5.60;2.30;;;;;;;;;;5047232;28;20083;-73
2022/08/12 13:03:43;;;;;;;5.15;2.20;;;;;;;;;;5043706;28;20014;-74
2022/08/12 13:06:08;;;;;;;5.35;2.15;;;;;;;;;;5049955;28;20041;-74
2022/08/12 13:08:33;;;;;;;8.55;2.30;;;;;;;;;;5042099;28;20017;-74
2022/08/12 13:11:00;;;;;;;4.85;2.20;;;;;;;;;;5043253;28;20048;-74
2022/08/12 13:13:26;;;;;;;7.50;2.22;;;;;;;;;;5044206;28;20091;-73
2022/08/12 13:15:52;;;;;;;5.63;1.95;;;;;;;;;;5049848;28;20025;-74
2022/08/12 13:18:18;;;;;;;3.97;1.75;;;;;;;;;;5039753;28;20025;-73
2022/08/12 13:20:46;;;;;;;6.63;2.35;;;;;;;;;;5042253;28;20477;-73
2022/08/12 13:23:14;;;;;;;6.07;1.88;;;;;;;;;;5041785;28;20053;-73
2022/08/12 13:25:40;;;;;;;4.28;2.22;;;;;;;;;;5038759;28;20429;-73
2022/08/12 13:28:07;;;;;;;15.05;2.53;;;;;;;;;;5038319;28;20132;-76
2022/08/12 13:30:34;;;;;;;4.30;2.08;;;;;;;;;;5026917;28;20030;-74
2022/08/12 13:33:00;;;;;;;11.27;2.20;;;;;;;;;;5048239;28;20033;-73
2022/08/12 13:35:26;;;;;;;6.72;2.35;;;;;;;;;;5045444;28;20554;-73
2022/08/12 13:37:53;;;;;;;7.53;2.30;;;;;;;;;;5038869;28;20017;-74
2022/08/12 13:40:21;;;;;;;4.05;1.90;;;;;;;;;;5040527;28;20028;-74
2022/08/12 13:42:47;;;;;;;5.35;2.03;;;;;;;;;;5049264;28;20091;-74
2022/08/12 13:45:14;;;;;;;3.83;2.20;;;;;;;;;;5049192;28;20024;-74
2022/08/12 13:47:58;;;;;;;4.10;2.10;;;;;;;;;;5051964;28;20024;-73
2022/08/12 13:50:31;;;;;;;10.55;2.13;;;;;;;;;;5049825;28;20036;-75
2022/08/12 13:53:01;;;;;;;6.20;2.60;;;;;;;;;;5044764;28;20060;-74
2022/08/12 13:55:27;;;;;;;5.82;2.08;;;;;;;;;;5040213;28;20029;-74
2022/08/12 13:57:53;;;;;;;6.40;1.98;;;;;;;;;;5043815;28;20023;-74
2022/08/12 14:00:19;;;;;;;5.75;2.35;;;;;;;;;;5041722;28;20031;-73
2022/08/12 14:02:44;;;;;;;6.20;2.25;;;;;;;;;;5043343;28;20044;-74
2022/08/12 14:05:09;;;;;;;4.15;2.10;;;;;;;;;;5046752;28;20024;-74
2022/08/12 14:07:54;;;;;;;7.75;2.05;;;;;;;;;;5040410;28;20025;-73
2022/08/12 14:10:35;;;;;;;6.75;2.38;;;;;;;;;;5032971;28;20036;-74
2022/08/12 14:13:01;;;;;;;4.85;2.20;;;;;;;;;;5035918;28;20472;-73
2022/08/12 14:15:26;;;;;;;7.72;2.55;;;;;;;;;;5037898;28;20040;-74
2022/08/12 14:17:51;;;;;;;5.55;2.00;;;;;;;;;;5041484;28;20013;-74
2022/08/12 14:20:17;;;;;;;6.20;2.13;;;;;;;;;;5036924;28;20419;-74
2022/08/12 14:22:42;;;;;;;6.13;2.05;;;;;;;;;;5047133;28;20556;-74
2022/08/12 14:25:07;;;;;;;7.63;1.88;;;;;;;;;;5053088;28;20025;-74
2022/08/12 14:27:34;;;;;;;6.65;2.20;;;;;;;;;;5049224;28;20021;-74
2022/08/12 14:30:04;;;;;;;5.00;2.22;;;;;;;;;;5045276;28;20464;-74
2022/08/12 14:32:35;;;;;;;4.20;2.28;;;;;;;;;;5045656;28;20389;-73
2022/08/12 14:35:01;;;;;;;6.47;2.00;;;;;;;;;;5045334;28;20016;-74
2022/08/12 14:37:27;;;;;;;4.65;2.10;;;;;;;;;;5046959;28;20048;-74
2022/08/12 14:39:52;;;;;;;11.38;2.17;;;;;;;;;;5034000;28;20449;-74
2022/08/12 14:42:17;;;;;;;7.40;2.15;;;;;;;;;;5050359;28;20105;-74
2022/08/12 14:44:42;;;;;;;5.05;1.88;;;;;;;;;;5051994;28;20033;-74
2022/08/12 14:47:08;;;;;;;7.28;2.35;;;;;;;;;;5040263;28;20441;-75
2022/08/12 14:49:33;;;;;;;5.13;2.13;;;;;;;;;;5049041;28;20025;-74
2022/08/12 14:51:59;;;;;;;7.63;2.30;;;;;;;;;;5051002;28;20086;-74
2022/08/12 14:54:24;;;;;;;7.97;2.25;;;;;;;;;;5047421;28;20070;-74
2022/08/12 14:56:50;;;;;;;7.82;2.20;;;;;;;;;;5052684;28;20032;-75
2022/08/12 15:01:59;;;;;;;5.07;2.08;;;;;;;;;;5050833;28;20109;-74
2022/08/12 15:04:27;;;;;;;4.47;2.08;;;;;;;;;;5052251;28;20438;-74
2022/08/12 15:06:53;;;;;;;6.75;2.10;;;;;;;;;;5043016;28;20021;-73
2022/08/12 15:09:19;;;;;;;4.85;2.25;;;;;;;;;;5043449;28;20028;-74
2022/08/12 15:11:46;;;;;;;7.90;2.08;;;;;;;;;;5039819;28;20034;-74
2022/08/12 15:14:11;;;;;;;7.65;2.03;;;;;;;;;;5039914;28;20028;-74
2022/08/12 15:16:37;;;;;;;3.58;1.95;;;;;;;;;;5048415;28;20032;-74
2022/08/12 15:19:02;;;;;;;9.77;2.45;;;;;;;;;;5051453;28;20031;-74
2022/08/12 15:21:27;;;;;;;6.90;1.90;;;;;;;;;;5041216;28;20018;-74
2022/08/12 15:23:53;;;;;;;7.07;2.10;;;;;;;;;;5046870;28;20103;-75
2022/08/12 15:26:18;;;;;;;4.15;1.90;;;;;;;;;;5036573;28;20026;-74
2022/08/12 15:28:44;;;;;;;4.25;1.92;;;;;;;;;;5050920;28;20044;-74
2022/08/12 15:31:12;;;;;;;2.90;1.90;;;;;;;;;;5051107;28;20029;-75
2022/08/12 15:33:38;;;;;;;7.30;2.22;;;;;;;;;;5048784;28;20388;-74
2022/08/12 15:36:06;;;;;;;7.85;2.33;;;;;;;;;;5040743;28;20072;-74
2022/08/12 15:38:31;;;;;;;3.45;1.73;;;;;;;;;;5031313;28;20087;-74
2022/08/12 15:40:58;;;;;;;8.20;2.38;;;;;;;;;;5036716;28;20042;-74
2022/08/12 15:43:24;;;;;;;5.28;2.10;;;;;;;;;;5041599;28;20021;-74
2022/08/12 15:45:50;;;;;;;8.00;2.17;;;;;;;;;;5041130;28;20026;-75
2022/08/12 15:48:15;;;;;;;4.32;2.10;;;;;;;;;;5045424;28;20159;-74
2022/08/12 15:50:43;;;;;;;3.83;1.90;;;;;;;;;;5037115;28;20104;-74
2022/08/12 15:53:09;;;;;;;4.10;2.05;;;;;;;;;;5033832;28;20385;-74
2022/08/12 15:55:34;;;;;;;4.72;2.20;;;;;;;;;;5045471;28;20025;-74
2022/08/12 15:58:00;;;;;;;4.47;2.00;;;;;;;;;;5048670;28;20482;-74
2022/08/12 16:00:37;;;;;;;5.40;2.10;;;;;;;;;;5049154;28;20441;-74
2022/08/12 16:03:04;;;;;;;3.58;1.90;;;;;;;;;;5042315;28;20484;-74
2022/08/12 16:05:31;;;;;;;3.80;1.98;;;;;;;;;;5052103;28;20028;-74
2022/08/12 16:07:57;;;;;;;4.03;1.90;;;;;;;;;;5049963;28;20108;-74
2022/08/12 16:10:23;;;;;;;3.58;2.08;;;;;;;;;;5049724;28;20057;-74
2022/08/12 16:12:50;;;;;;;4.15;2.15;;;;;;;;;;5038358;28;20029;-74
2022/08/12 16:15:16;;;;;;;3.80;1.90;;;;;;;;;;5048936;28;20033;-74
2022/08/12 16:17:45;;;;;;;5.28;2.08;;;;;;;;;;5048038;28;20087;-74
2022/08/12 16:20:20;;;;;;;5.88;2.15;;;;;;;;;;5033302;28;20013;-74
2022/08/12 16:22:49;;;;;;;4.80;2.10;;;;;;;;;;5039614;28;20505;-74
2022/08/12 16:25:14;;;;;;;3.50;1.90;;;;;;;;;;5045773;28;20385;-74
2022/08/12 16:27:40;;;;;;;4.25;1.90;;;;;;;;;;5052826;28;20038;-74